sensor_id;sensor_type;location;lat;lon;timestamp;pressure;altitude;pressure_sealevel;temperature;humidity
61324;BME280;47203;48.428;11.974;2023-07-13T00:01:50;96740.66;;;24.28;55.90
61324;BME280;47203;48.428;11.974;2023-07-13T00:03:56;96739.53;;;24.29;55.80
61324;BME280;47203;48.428;11.974;2023-07-13T00:06:01;96749.16;;;24.30;55.92
61324;BME280;47203;48.428;11.974;2023-07-13T00:08:04;96748.03;;;24.31;55.97
61324;BME280;47203;48.428;11.974;2023-07-13T00:10:10;96741.50;;;24.32;56.23
61324;BME280;47203;48.428;11.974;2023-07-13T00:12:23;96745.00;;;24.33;56.58
61324;BME280;47203;48.428;11.974;2023-07-13T00:14:29;96741.50;;;24.32;55.91
61324;BME280;47203;48.428;11.974;2023-07-13T00:16:35;96747.69;;;24.33;56.27
61324;BME280;47203;48.428;11.974;2023-07-13T00:18:43;96741.09;;;24.30;56.17
61324;BME280;47203;48.428;11.974;2023-07-13T00:20:48;96725.31;;;24.29;56.03
61324;BME280;47203;48.428;11.974;2023-07-13T00:22:53;96718.38;;;24.28;56.33
61324;BME280;47203;48.428;11.974;2023-07-13T00:24:59;96711.00;;;24.25;56.13
61324;BME280;47203;48.428;11.974;2023-07-13T00:27:04;96718.31;;;24.24;56.24
61324;BME280;47203;48.428;11.974;2023-07-13T00:29:09;96722.47;;;24.21;56.02
61324;BME280;47203;48.428;11.974;2023-07-13T00:31:14;96722.84;;;24.20;56.02
61324;BME280;47203;48.428;11.974;2023-07-13T00:33:21;96723.94;;;24.19;56.56
61324;BME280;47203;48.428;11.974;2023-07-13T00:35:30;96730.47;;;24.18;56.66
61324;BME280;47203;48.428;11.974;2023-07-13T00:37:35;96741.56;;;24.16;56.17
61324;BME280;47203;48.428;11.974;2023-07-13T00:39:41;96744.97;;;24.13;56.33
61324;BME280;47203;48.428;11.974;2023-07-13T00:41:45;96737.25;;;24.12;56.43
61324;BME280;47203;48.428;11.974;2023-07-13T00:43:50;96736.84;;;24.10;56.12
61324;BME280;47203;48.428;11.974;2023-07-13T00:46:12;96739.06;;;24.08;56.68
61324;BME280;47203;48.428;11.974;2023-07-13T00:48:21;96727.91;;;24.05;56.51
61324;BME280;47203;48.428;11.974;2023-07-13T00:50:29;96733.28;;;24.05;56.57
61324;BME280;47203;48.428;11.974;2023-07-13T00:52:36;96736.31;;;24.04;56.38
61324;BME280;47203;48.428;11.974;2023-07-13T00:54:45;96732.88;;;24.03;56.65
61324;BME280;47203;48.428;11.974;2023-07-13T00:56:53;96739.00;;;24.04;56.39
61324;BME280;47203;48.428;11.974;2023-07-13T00:58:59;96731.72;;;24.04;56.83
61324;BME280;47203;48.428;11.974;2023-07-13T01:01:02;96726.34;;;24.04;56.23
61324;BME280;47203;48.428;11.974;2023-07-13T01:03:08;96727.91;;;24.05;56.38
61324;BME280;47203;48.428;11.974;2023-07-13T01:05:14;96729.03;;;24.04;56.71
61324;BME280;47203;48.428;11.974;2023-07-13T01:07:22;96732.88;;;24.03;57.10
61324;BME280;47203;48.428;11.974;2023-07-13T01:09:31;96736.31;;;24.04;56.92
61324;BME280;47203;48.428;11.974;2023-07-13T01:11:36;96734.06;;;24.06;56.43
61324;BME280;47203;48.428;11.974;2023-07-13T01:13:41;96734.06;;;24.06;56.70
61324;BME280;47203;48.428;11.974;2023-07-13T01:15:48;96734.06;;;24.06;56.68
61324;BME280;47203;48.428;11.974;2023-07-13T01:17:54;96742.13;;;24.06;56.77
61324;BME280;47203;48.428;11.974;2023-07-13T01:19:57;96734.50;;;24.08;56.91
61324;BME280;47203;48.428;11.974;2023-07-13T01:22:05;96735.63;;;24.07;57.11
61324;BME280;47203;48.428;11.974;2023-07-13T01:24:11;96730.25;;;24.07;56.64
61324;BME280;47203;48.428;11.974;2023-07-13T01:26:17;96721.06;;;24.08;56.85
61324;BME280;47203;48.428;11.974;2023-07-13T01:28:23;96718.38;;;24.08;56.99
61324;BME280;47203;48.428;11.974;2023-07-13T01:30:29;96718.78;;;24.10;56.79
61324;BME280;47203;48.428;11.974;2023-07-13T01:32:35;96712.28;;;24.11;56.79
61324;BME280;47203;48.428;11.974;2023-07-13T01:34:43;96709.25;;;24.13;56.90
61324;BME280;47203;48.428;11.974;2023-07-13T01:36:50;96710.38;;;24.12;56.60
61324;BME280;47203;48.428;11.974;2023-07-13T01:38:58;96712.63;;;24.10;57.06
61324;BME280;47203;48.428;11.974;2023-07-13T01:41:03;96712.28;;;24.11;56.52
61324;BME280;47203;48.428;11.974;2023-07-13T01:43:09;96708.03;;;24.10;57.04
61324;BME280;47203;48.428;11.974;2023-07-13T01:45:15;96701.88;;;24.10;56.66
61324;BME280;47203;48.428;11.974;2023-07-13T01:47:20;96704.22;;;24.11;56.79
61324;BME280;47203;48.428;11.974;2023-07-13T01:49:25;96715.38;;;24.13;56.70
61324;BME280;47203;48.428;11.974;2023-07-13T01:51:29;96708.88;;;24.14;57.06
61324;BME280;47203;48.428;11.974;2023-07-13T01:53:34;96716.19;;;24.14;56.84
61324;BME280;47203;48.428;11.974;2023-07-13T01:55:42;96699.34;;;24.17;57.14
61324;BME280;47203;48.428;11.974;2023-07-13T01:57:49;96703.56;;;24.18;56.71
61324;BME280;47203;48.428;11.974;2023-07-13T01:59:54;96719.69;;;24.18;56.66
61324;BME280;47203;48.428;11.974;2023-07-13T02:01:59;96720.50;;;24.18;56.62
61324;BME280;47203;48.428;11.974;2023-07-13T02:04:04;96721.25;;;24.19;56.81
61324;BME280;47203;48.428;11.974;2023-07-13T02:06:09;96728.22;;;24.20;56.73
61324;BME280;47203;48.428;11.974;2023-07-13T02:08:14;96722.38;;;24.18;56.81
61324;BME280;47203;48.428;11.974;2023-07-13T02:10:21;96727.75;;;24.18;57.14
61324;BME280;47203;48.428;11.974;2023-07-13T02:12:29;96727.75;;;24.18;57.11
61324;BME280;47203;48.428;11.974;2023-07-13T02:14:33;96739.31;;;24.18;56.79
61324;BME280;47203;48.428;11.974;2023-07-13T02:16:38;96735.06;;;24.17;57.19
61324;BME280;47203;48.428;11.974;2023-07-13T02:18:44;96725.44;;;24.16;56.87
61324;BME280;47203;48.428;11.974;2023-07-13T02:20:49;96733.50;;;24.16;56.72
61324;BME280;47203;48.428;11.974;2023-07-13T02:22:53;96724.25;;;24.14;56.67
61324;BME280;47203;48.428;11.974;2023-07-13T02:24:59;96722.69;;;24.13;57.11
61324;BME280;47203;48.428;11.974;2023-07-13T02:27:05;96722.69;;;24.13;56.88
61324;BME280;47203;48.428;11.974;2023-07-13T02:29:10;96726.13;;;24.13;57.47
61324;BME280;47203;48.428;11.974;2023-07-13T02:31:15;96724.25;;;24.14;56.80
61324;BME280;47203;48.428;11.974;2023-07-13T02:33:20;96728.06;;;24.13;57.03
61324;BME280;47203;48.428;11.974;2023-07-13T02:35:25;96720.34;;;24.11;57.23
61324;BME280;47203;48.428;11.974;2023-07-13T02:37:33;96729.19;;;24.12;57.06
61324;BME280;47203;48.428;11.974;2023-07-13T02:39:37;96729.53;;;24.10;56.98
61324;BME280;47203;48.428;11.974;2023-07-13T02:41:43;96727.97;;;24.09;56.89
61324;BME280;47203;48.428;11.974;2023-07-13T02:43:48;96727.56;;;24.07;57.11
61324;BME280;47203;48.428;11.974;2023-07-13T02:45:56;96735.22;;;24.05;57.14
61324;BME280;47203;48.428;11.974;2023-07-13T02:48:05;96736.69;;;24.02;56.89
61324;BME280;47203;48.428;11.974;2023-07-13T02:50:10;96740.13;;;24.03;57.28
61324;BME280;47203;48.428;11.974;2023-07-13T02:52:16;96737.03;;;24.01;57.40
61324;BME280;47203;48.428;11.974;2023-07-13T02:54:21;96742.41;;;24.01;57.04
61324;BME280;47203;48.428;11.974;2023-07-13T02:56:27;96738.16;;;24.00;57.04
61324;BME280;47203;48.428;11.974;2023-07-13T02:58:34;96745.88;;;24.01;57.34
61324;BME280;47203;48.428;11.974;2023-07-13T03:00:40;96740.84;;;24.00;57.25
61324;BME280;47203;48.428;11.974;2023-07-13T03:02:48;96739.28;;;23.99;57.18
61324;BME280;47203;48.428;11.974;2023-07-13T03:04:55;96741.63;;;24.00;57.31
61324;BME280;47203;48.428;11.974;2023-07-13T03:07:03;96748.19;;;24.03;57.27
61324;BME280;47203;48.428;11.974;2023-07-13T03:09:11;96743.63;;;24.03;57.42
61324;BME280;47203;48.428;11.974;2023-07-13T03:11:22;96757.13;;;24.07;57.26
61324;BME280;47203;48.428;11.974;2023-07-13T03:13:36;96766.66;;;24.04;56.96
61324;BME280;47203;48.428;11.974;2023-07-13T03:15:41;96769.34;;;24.04;57.00
61324;BME280;47203;48.428;11.974;2023-07-13T03:17:49;96782.72;;;24.01;57.07
61324;BME280;47203;48.428;11.974;2023-07-13T03:19:54;96773.88;;;24.00;57.35
61324;BME280;47203;48.428;11.974;2023-07-13T03:21:59;96775.78;;;24.00;57.41
61324;BME280;47203;48.428;11.974;2023-07-13T03:24:05;96778.47;;;24.00;57.02
61324;BME280;47203;48.428;11.974;2023-07-13T03:26:12;96773.44;;;23.98;57.43
61324;BME280;47203;48.428;11.974;2023-07-13T03:28:18;96765.38;;;23.98;56.93
61324;BME280;47203;48.428;11.974;2023-07-13T03:30:23;96776.56;;;24.00;57.28
61324;BME280;47203;48.428;11.974;2023-07-13T03:32:28;96776.56;;;24.00;57.07
61324;BME280;47203;48.428;11.974;2023-07-13T03:34:36;96774.56;;;23.97;57.41
61324;BME280;47203;48.428;11.974;2023-07-13T03:36:41;96775.38;;;23.98;56.94
61324;BME280;47203;48.428;11.974;2023-07-13T03:38:48;96763.81;;;23.97;57.21
61324;BME280;47203;48.428;11.974;2023-07-13T03:40:52;96773.03;;;23.96;57.18
61324;BME280;47203;48.428;11.974;2023-07-13T03:42:57;96770.69;;;23.95;57.22
61324;BME280;47203;48.428;11.974;2023-07-13T03:45:08;96777.97;;;23.94;56.85
61324;BME280;47203;48.428;11.974;2023-07-13T03:47:13;96775.63;;;23.93;57.11
61324;BME280;47203;48.428;11.974;2023-07-13T03:49:19;96774.84;;;23.92;57.29
61324;BME280;47203;48.428;11.974;2023-07-13T03:51:26;96777.91;;;23.91;57.12
61324;BME280;47203;48.428;11.974;2023-07-13T03:53:31;96784.81;;;23.92;57.50
61324;BME280;47203;48.428;11.974;2023-07-13T03:55:33;96777.09;;;23.90;57.11
61324;BME280;47203;48.428;11.974;2023-07-13T03:57:38;96777.09;;;23.90;56.95
61324;BME280;47203;48.428;11.974;2023-07-13T03:59:44;96788.22;;;23.88;57.51
61324;BME280;47203;48.428;11.974;2023-07-13T04:01:49;96791.25;;;23.87;57.08
61324;BME280;47203;48.428;11.974;2023-07-13T04:03:54;96786.53;;;23.84;57.38
61324;BME280;47203;48.428;11.974;2023-07-13T04:06:06;96783.09;;;23.83;57.48
61324;BME280;47203;48.428;11.974;2023-07-13T04:08:15;96789.16;;;23.80;57.61
61324;BME280;47203;48.428;11.974;2023-07-13T04:10:17;96788.34;;;23.80;57.36
61324;BME280;47203;48.428;11.974;2023-07-13T04:12:22;96792.09;;;23.75;57.42
61324;BME280;47203;48.428;11.974;2023-07-13T04:14:31;96796.34;;;23.76;57.64
61324;BME280;47203;48.428;11.974;2023-07-13T04:16:35;96792.09;;;23.75;57.47
61324;BME280;47203;48.428;11.974;2023-07-13T04:18:41;96796.69;;;23.75;57.29
61324;BME280;47203;48.428;11.974;2023-07-13T04:20:43;96803.19;;;23.74;57.78
61324;BME280;47203;48.428;11.974;2023-07-13T04:22:48;96795.50;;;23.72;57.79
61324;BME280;47203;48.428;11.974;2023-07-13T04:24:54;96793.91;;;23.71;57.65
61324;BME280;47203;48.428;11.974;2023-07-13T04:26:59;96796.59;;;23.71;57.73
61324;BME280;47203;48.428;11.974;2023-07-13T04:29:05;96800.09;;;23.72;58.00
61324;BME280;47203;48.428;11.974;2023-07-13T04:31:11;96798.53;;;23.70;57.47
61324;BME280;47203;48.428;11.974;2023-07-13T04:33:18;96801.22;;;23.70;57.89
61324;BME280;47203;48.428;11.974;2023-07-13T04:35:24;96801.97;;;23.71;57.55
61324;BME280;47203;48.428;11.974;2023-07-13T04:37:29;96811.19;;;23.70;57.97
61324;BME280;47203;48.428;11.974;2023-07-13T04:39:31;96804.59;;;23.67;57.93
61324;BME280;47203;48.428;11.974;2023-07-13T04:41:39;96810.31;;;23.66;57.74
61324;BME280;47203;48.428;11.974;2023-07-13T04:43:44;96814.88;;;23.65;57.85
61324;BME280;47203;48.428;11.974;2023-07-13T04:45:50;96818.38;;;23.66;58.16
61324;BME280;47203;48.428;11.974;2023-07-13T04:47:55;96811.09;;;23.66;57.81
61324;BME280;47203;48.428;11.974;2023-07-13T04:50:00;96813.78;;;23.66;58.11
61324;BME280;47203;48.428;11.974;2023-07-13T04:52:06;96813.44;;;23.68;57.95
61324;BME280;47203;48.428;11.974;2023-07-13T04:54:11;96814.53;;;23.67;57.71
61324;BME280;47203;48.428;11.974;2023-07-13T04:56:16;96811.09;;;23.66;58.18
61324;BME280;47203;48.428;11.974;2023-07-13T04:58:24;96817.56;;;23.65;57.84
61324;BME280;47203;48.428;11.974;2023-07-13T05:00:29;96818.72;;;23.64;58.13
61324;BME280;47203;48.428;11.974;2023-07-13T05:02:32;96825.81;;;23.57;57.91
61324;BME280;47203;48.428;11.974;2023-07-13T05:04:37;96829.28;;;23.57;57.93
61324;BME280;47203;48.428;11.974;2023-07-13T05:06:42;96832.41;;;23.59;58.30
61324;BME280;47203;48.428;11.974;2023-07-13T05:08:47;96827.72;;;23.56;58.01
61324;BME280;47203;48.428;11.974;2023-07-13T05:10:52;96826.16;;;23.55;58.33
61324;BME280;47203;48.428;11.974;2023-07-13T05:12:57;96829.66;;;23.56;58.11
61324;BME280;47203;48.428;11.974;2023-07-13T05:15:06;96828.84;;;23.55;57.93
61324;BME280;47203;48.428;11.974;2023-07-13T05:17:11;96831.97;;;23.57;58.28
61324;BME280;47203;48.428;11.974;2023-07-13T05:19:16;96835.78;;;23.56;58.30
61324;BME280;47203;48.428;11.974;2023-07-13T05:21:21;96832.75;;;23.58;58.28
61324;BME280;47203;48.428;11.974;2023-07-13T05:23:26;96837.00;;;23.59;57.99
61324;BME280;47203;48.428;11.974;2023-07-13T05:25:31;96845.06;;;23.59;57.78
61324;BME280;47203;48.428;11.974;2023-07-13T05:27:36;96841.25;;;23.60;58.45
61324;BME280;47203;48.428;11.974;2023-07-13T05:29:41;96850.09;;;23.60;57.88
61324;BME280;47203;48.428;11.974;2023-07-13T05:31:49;96852.78;;;23.60;58.36
61324;BME280;47203;48.428;11.974;2023-07-13T05:33:54;96856.22;;;23.61;58.06
61324;BME280;47203;48.428;11.974;2023-07-13T05:35:59;96844.38;;;23.62;58.10
61324;BME280;47203;48.428;11.974;2023-07-13T05:38:04;96858.56;;;23.62;57.99
61324;BME280;47203;48.428;11.974;2023-07-13T05:40:09;96856.69;;;23.63;58.34
61324;BME280;47203;48.428;11.974;2023-07-13T05:42:14;96858.56;;;23.62;58.38
61324;BME280;47203;48.428;11.974;2023-07-13T05:44:19;96866.63;;;23.62;58.39
61324;BME280;47203;48.428;11.974;2023-07-13T05:46:25;96854.78;;;23.63;57.99
61324;BME280;47203;48.428;11.974;2023-07-13T05:48:33;96854.34;;;23.61;58.45
61324;BME280;47203;48.428;11.974;2023-07-13T05:50:38;96854.34;;;23.61;58.16
61324;BME280;47203;48.428;11.974;2023-07-13T05:52:43;96858.91;;;23.61;57.72
61324;BME280;47203;48.428;11.974;2023-07-13T05:54:48;96862.41;;;23.61;57.64
61324;BME280;47203;48.428;11.974;2023-07-13T05:56:53;96855.13;;;23.62;57.71
61324;BME280;47203;48.428;11.974;2023-07-13T05:58:58;96855.13;;;23.62;57.67
61324;BME280;47203;48.428;11.974;2023-07-13T06:01:04;96860.50;;;23.62;57.58
61324;BME280;47203;48.428;11.974;2023-07-13T06:03:07;96867.78;;;23.61;57.55
61324;BME280;47203;48.428;11.974;2023-07-13T06:05:15;96858.91;;;23.61;57.72
61324;BME280;47203;48.428;11.974;2023-07-13T06:07:24;96869.78;;;23.64;57.80
61324;BME280;47203;48.428;11.974;2023-07-13T06:09:29;96864.81;;;23.66;57.34
61324;BME280;47203;48.428;11.974;2023-07-13T06:11:37;96867.16;;;23.68;57.47
61324;BME280;47203;48.428;11.974;2023-07-13T06:13:39;96874.09;;;23.69;57.31
61324;BME280;47203;48.428;11.974;2023-07-13T06:15:48;96883.38;;;23.72;56.86
61324;BME280;47203;48.428;11.974;2023-07-13T06:17:54;96882.69;;;23.75;57.06
61324;BME280;47203;48.428;11.974;2023-07-13T06:20:02;96878.84;;;23.76;56.76
61324;BME280;47203;48.428;11.974;2023-07-13T06:22:12;96888.94;;;23.79;56.35
61324;BME280;47203;48.428;11.974;2023-07-13T06:24:17;96889.38;;;23.81;56.63
61324;BME280;47203;48.428;11.974;2023-07-13T06:26:21;96876.34;;;23.83;56.16
61324;BME280;47203;48.428;11.974;2023-07-13T06:28:26;96884.53;;;23.86;56.52
61324;BME280;47203;48.428;11.974;2023-07-13T06:30:32;96886.53;;;23.90;56.37
61324;BME280;47203;48.428;11.974;2023-07-13T06:32:41;96887.41;;;23.94;56.32
61324;BME280;47203;48.428;11.974;2023-07-13T06:34:46;96889.41;;;23.97;56.25
61324;BME280;47203;48.428;11.974;2023-07-13T06:36:54;96893.72;;;24.01;56.54
61324;BME280;47203;48.428;11.974;2023-07-13T06:39:01;96892.69;;;24.06;56.49
61324;BME280;47203;48.428;11.974;2023-07-13T06:41:07;96890.84;;;24.10;56.69
61324;BME280;47203;48.428;11.974;2023-07-13T06:43:13;96885.56;;;24.14;56.27
61324;BME280;47203;48.428;11.974;2023-07-13T06:45:16;96885.66;;;24.17;56.00
61324;BME280;47203;48.428;11.974;2023-07-13T06:47:20;96893.00;;;24.20;56.15
61324;BME280;47203;48.428;11.974;2023-07-13T06:49:25;96886.59;;;24.25;56.18
61324;BME280;47203;48.428;11.974;2023-07-13T06:51:30;96890.13;;;24.29;55.33
61324;BME280;47203;48.428;11.974;2023-07-13T06:53:36;96887.91;;;24.31;55.03
61324;BME280;47203;48.428;11.974;2023-07-13T06:55:44;96879.47;;;24.33;54.96
61324;BME280;47203;48.428;11.974;2023-07-13T06:57:50;96890.31;;;24.36;55.35
61324;BME280;47203;48.428;11.974;2023-07-13T06:59:55;96894.97;;;24.39;55.10
61324;BME280;47203;48.428;11.974;2023-07-13T07:02:00;96894.72;;;24.45;54.84
61324;BME280;47203;48.428;11.974;2023-07-13T07:04:05;96903.22;;;24.47;54.83
61324;BME280;47203;48.428;11.974;2023-07-13T07:06:14;96899.81;;;24.50;54.65
61324;BME280;47203;48.428;11.974;2023-07-13T07:08:19;96911.44;;;24.54;54.80
61324;BME280;47203;48.428;11.974;2023-07-13T07:10:25;96910.72;;;24.57;54.36
61324;BME280;47203;48.428;11.974;2023-07-13T07:12:33;96918.94;;;24.61;54.04
61324;BME280;47203;48.428;11.974;2023-07-13T07:14:42;96922.47;;;24.65;54.19
61324;BME280;47203;48.428;11.974;2023-07-13T07:16:47;96922.53;;;24.68;53.88
61324;BME280;47203;48.428;11.974;2023-07-13T07:18:56;96916.47;;;24.71;53.85
61324;BME280;47203;48.428;11.974;2023-07-13T07:21:04;96912.28;;;24.74;53.40
61324;BME280;47203;48.428;11.974;2023-07-13T07:23:13;96923.13;;;24.78;53.07
61324;BME280;47203;48.428;11.974;2023-07-13T07:25:16;96928.16;;;24.79;53.16
61324;BME280;47203;48.428;11.974;2023-07-13T07:27:21;96921.28;;;24.82;53.10
61324;BME280;47203;48.428;11.974;2023-07-13T07:29:29;96919.81;;;24.84;52.57
61324;BME280;47203;48.428;11.974;2023-07-13T07:31:37;96923.28;;;24.85;52.75
61324;BME280;47203;48.428;11.974;2023-07-13T07:33:45;96924.84;;;24.86;52.34
61324;BME280;47203;48.428;11.974;2023-07-13T07:35:52;96924.47;;;24.87;52.42
61324;BME280;47203;48.428;11.974;2023-07-13T07:38:00;96932.22;;;24.89;52.24
61324;BME280;47203;48.428;11.974;2023-07-13T07:40:07;96934.53;;;24.90;52.03
61324;BME280;47203;48.428;11.974;2023-07-13T07:42:16;96936.47;;;24.90;51.88
61324;BME280;47203;48.428;11.974;2023-07-13T07:44:21;96935.75;;;24.93;51.62
61324;BME280;47203;48.428;11.974;2023-07-13T07:46:30;96934.63;;;24.94;51.21
61324;BME280;47203;48.428;11.974;2023-07-13T07:48:35;96938.50;;;24.97;51.40
61324;BME280;47203;48.428;11.974;2023-07-13T07:50:41;96940.84;;;24.98;51.02
61324;BME280;47203;48.428;11.974;2023-07-13T07:52:46;96945.88;;;25.00;50.57
61324;BME280;47203;48.428;11.974;2023-07-13T07:54:51;96939.00;;;25.02;50.86
61324;BME280;47203;48.428;11.974;2023-07-13T07:56:59;96941.34;;;25.04;50.95
61324;BME280;47203;48.428;11.974;2023-07-13T07:59:24;96939.09;;;25.06;50.80
61324;BME280;47203;48.428;11.974;2023-07-13T08:01:35;96939.09;;;25.06;50.48
61324;BME280;47203;48.428;11.974;2023-07-13T08:03:59;96943.34;;;25.07;50.86
61324;BME280;47203;48.428;11.974;2023-07-13T08:06:07;96939.53;;;25.08;50.36
61324;BME280;47203;48.428;11.974;2023-07-13T08:08:38;96944.56;;;25.09;50.78
61324;BME280;47203;48.428;11.974;2023-07-13T08:10:45;96957.31;;;25.13;50.73
61324;BME280;47203;48.428;11.974;2023-07-13T08:12:55;96956.59;;;25.16;50.24
61324;BME280;47203;48.428;11.974;2023-07-13T08:15:04;96955.47;;;25.17;50.12
61324;BME280;47203;48.428;11.974;2023-07-13T08:17:12;96967.00;;;25.17;49.65
61324;BME280;47203;48.428;11.974;2023-07-13T08:19:18;96968.94;;;25.17;49.78
61324;BME280;47203;48.428;11.974;2023-07-13T08:21:24;96973.56;;;25.16;49.73
61324;BME280;47203;48.428;11.974;2023-07-13T08:23:30;96971.97;;;25.15;49.40
61324;BME280;47203;48.428;11.974;2023-07-13T08:25:35;96980.00;;;25.12;49.17
61324;BME280;47203;48.428;11.974;2023-07-13T08:27:40;96980.69;;;25.08;49.02
61324;BME280;47203;48.428;11.974;2023-07-13T08:29:47;96983.72;;;25.07;48.74
61324;BME280;47203;48.428;11.974;2023-07-13T08:31:52;96977.56;;;25.06;48.97
61324;BME280;47203;48.428;11.974;2023-07-13T08:34:00;96981.38;;;25.05;48.26
61324;BME280;47203;48.428;11.974;2023-07-13T08:36:05;96975.66;;;25.07;48.67
61324;BME280;47203;48.428;11.974;2023-07-13T08:38:11;96979.91;;;25.08;48.86
61324;BME280;47203;48.428;11.974;2023-07-13T08:40:17;96988.41;;;25.10;48.59
61324;BME280;47203;48.428;11.974;2023-07-13T08:42:32;96987.63;;;25.09;48.34
61324;BME280;47203;48.428;11.974;2023-07-13T08:44:42;96993.78;;;25.10;48.12
61324;BME280;47203;48.428;11.974;2023-07-13T08:46:52;96993.47;;;25.12;48.80
61324;BME280;47203;48.428;11.974;2023-07-13T08:49:04;96992.31;;;25.13;48.40
61324;BME280;47203;48.428;11.974;2023-07-13T08:51:20;96999.25;;;25.14;48.14
61324;BME280;47203;48.428;11.974;2023-07-13T08:53:34;96999.25;;;25.14;47.46
61324;BME280;47203;48.428;11.974;2023-07-13T08:55:41;96999.25;;;25.14;47.81
61324;BME280;47203;48.428;11.974;2023-07-13T08:57:48;97000.84;;;25.15;47.36
61324;BME280;47203;48.428;11.974;2023-07-13T08:59:55;96998.91;;;25.15;47.77
61324;BME280;47203;48.428;11.974;2023-07-13T09:02:15;97000.84;;;25.15;47.23
61324;BME280;47203;48.428;11.974;2023-07-13T09:04:27;97005.41;;;25.14;46.74
61324;BME280;47203;48.428;11.974;2023-07-13T09:06:42;97010.03;;;25.14;46.48
61324;BME280;47203;48.428;11.974;2023-07-13T09:08:57;97018.13;;;25.14;46.66
61324;BME280;47203;48.428;11.974;2023-07-13T09:13:37;97010.75;;;25.11;46.64
61324;BME280;47203;48.428;11.974;2023-07-13T09:15:46;97009.94;;;25.10;47.75
61324;BME280;47203;48.428;11.974;2023-07-13T09:17:52;97019.19;;;25.09;47.59
61324;BME280;47203;48.428;11.974;2023-07-13T09:20:13;97020.25;;;25.04;46.59
61324;BME280;47203;48.428;11.974;2023-07-13T09:22:23;97012.06;;;25.01;46.74
61324;BME280;47203;48.428;11.974;2023-07-13T09:24:37;97014.25;;;24.95;47.00
61324;BME280;47203;48.428;11.974;2023-07-13T09:26:42;97011.50;;;24.91;47.71
61324;BME280;47203;48.428;11.974;2023-07-13T09:28:50;97018.72;;;24.87;47.15
61324;BME280;47203;48.428;11.974;2023-07-13T09:31:01;97017.41;;;24.81;46.78
61324;BME280;47203;48.428;11.974;2023-07-13T09:33:08;97010.41;;;24.77;46.64
61324;BME280;47203;48.428;11.974;2023-07-13T09:35:20;97011.44;;;24.72;45.78
61324;BME280;47203;48.428;11.974;2023-07-13T09:37:28;97009.94;;;24.58;46.87
61324;BME280;47203;48.428;11.974;2023-07-13T09:39:37;97009.53;;;24.56;46.06
61324;BME280;47203;48.428;11.974;2023-07-13T09:41:48;97019.06;;;24.54;46.41
61324;BME280;47203;48.428;11.974;2023-07-13T09:44:10;97013.97;;;24.49;45.86
61324;BME280;47203;48.428;11.974;2023-07-13T09:46:21;97020.81;;;24.46;46.58
61324;BME280;47203;48.428;11.974;2023-07-13T09:48:34;97021.50;;;24.43;46.49
61324;BME280;47203;48.428;11.974;2023-07-13T09:50:42;97025.22;;;24.38;46.10
61324;BME280;47203;48.428;11.974;2023-07-13T09:52:49;97022.09;;;24.36;46.10
61324;BME280;47203;48.428;11.974;2023-07-13T09:54:56;97025.91;;;24.35;46.56
61324;BME280;47203;48.428;11.974;2023-07-13T09:57:12;97023.91;;;24.32;45.84
61324;BME280;47203;48.428;11.974;2023-07-13T09:59:19;97018.53;;;24.32;46.51
61324;BME280;47203;48.428;11.974;2023-07-13T10:01:33;97015.06;;;24.32;45.29
61324;BME280;47203;48.428;11.974;2023-07-13T10:03:38;97020.97;;;24.21;46.49
61324;BME280;47203;48.428;11.974;2023-07-13T10:05:52;97014.13;;;24.24;46.19
61324;BME280;47203;48.428;11.974;2023-07-13T10:07:57;97019.22;;;24.29;47.28
61324;BME280;47203;48.428;11.974;2023-07-13T10:10:14;97019.75;;;24.35;47.17
61324;BME280;47203;48.428;11.974;2023-07-13T10:12:22;97019.53;;;24.40;47.63
61324;BME280;47203;48.428;11.974;2023-07-13T10:14:29;97021.94;;;24.45;47.18
61324;BME280;47203;48.428;11.974;2023-07-13T10:16:34;97019.00;;;24.50;47.12
61324;BME280;47203;48.428;11.974;2023-07-13T10:18:42;97011.75;;;24.54;47.62
61324;BME280;47203;48.428;11.974;2023-07-13T10:20:54;97016.47;;;24.57;46.20
61324;BME280;47203;48.428;11.974;2023-07-13T10:23:25;97018.50;;;24.61;46.79
61324;BME280;47203;48.428;11.974;2023-07-13T10:25:39;97016.66;;;24.65;46.75
61324;BME280;47203;48.428;11.974;2023-07-13T10:27:47;97017.16;;;24.70;46.71
61324;BME280;47203;48.428;11.974;2023-07-13T10:30:00;97015.34;;;24.74;46.64
61324;BME280;47203;48.428;11.974;2023-07-13T10:32:09;97014.28;;;24.79;46.21
61324;BME280;47203;48.428;11.974;2023-07-13T10:34:17;97010.56;;;24.84;46.41
61324;BME280;47203;48.428;11.974;2023-07-13T10:36:31;97014.88;;;24.88;45.88
61324;BME280;47203;48.428;11.974;2023-07-13T10:38:37;97020.00;;;24.94;46.65
61324;BME280;47203;48.428;11.974;2023-07-13T10:40:45;97017.81;;;24.99;46.07
61324;BME280;47203;48.428;11.974;2023-07-13T10:42:54;97029.84;;;25.05;47.39
61324;BME280;47203;48.428;11.974;2023-07-13T10:45:01;97026.09;;;25.10;47.28
61324;BME280;47203;48.428;11.974;2023-07-13T10:47:08;97018.53;;;25.16;47.27
61324;BME280;47203;48.428;11.974;2023-07-13T10:49:18;97013.66;;;25.21;46.76
61324;BME280;47203;48.428;11.974;2023-07-13T10:51:27;97011.81;;;25.25;47.18
61324;BME280;47203;48.428;11.974;2023-07-13T10:53:34;97018.84;;;25.30;47.74
61324;BME280;47203;48.428;11.974;2023-07-13T10:55:55;97022.41;;;25.34;46.35
61324;BME280;47203;48.428;11.974;2023-07-13T10:58:03;97023.63;;;25.37;46.37
61324;BME280;47203;48.428;11.974;2023-07-13T11:00:17;97014.44;;;25.38;46.11
